Time;durP1;ratioP1;P1;durP2;ratioP2;P2;SDS_P1;SDS_P2;PMS_P1;PMS_P2;Temp;Humidity;BMP_temperature;BMP_pressure;BME280_temperature;BME280_humidity;BME280_pressure;Samples;Min_cycle;Max_cycle;Signal;HPM_P1;HPM_P2
2022/04/26 03:36:47;;;;;;;44.97;31.77;;;;;;;4.78;71.47;97612.69;9967075;29;20046;-77
2022/04/26 03:42:08;;;;;;;37.17;26.02;;;;;;;4.77;70.98;97619.53;9973432;29;20049;-78
2022/04/26 03:47:29;;;;;;;33.83;22.75;;;;;;;4.70;71.46;97612.00;9976320;29;20057;-77
2022/04/26 03:52:53;;;;;;;30.08;21.58;;;;;;;4.68;71.41;97619.38;9972397;29;20054;-77
2022/04/26 03:58:14;;;;;;;30.27;22.25;;;;;;;4.68;71.48;97624.91;9981830;29;20397;-78
2022/04/26 04:03:37;;;;;;;26.63;19.77;;;;;;;4.72;71.62;97634.28;9970788;29;20050;-77
2022/04/26 04:08:58;;;;;;;28.27;20.33;;;;;;;4.83;71.67;97635.94;9986071;29;20099;-77
2022/04/26 04:14:19;;;;;;;27.00;19.75;;;;;;;4.91;71.54;97633.13;9976073;29;20073;-77
2022/04/26 04:19:40;;;;;;;21.95;16.00;;;;;;;5.02;71.42;97654.81;9988755;29;20440;-77
2022/04/26 04:25:02;;;;;;;26.15;19.40;;;;;;;5.14;71.65;97648.34;9996837;29;20436;-77
2022/04/26 04:30:23;;;;;;;28.00;19.90;;;;;;;5.36;71.31;97643.25;9980459;29;20054;-77
2022/04/26 04:35:46;;;;;;;27.67;19.80;;;;;;;5.55;71.11;97648.31;9996339;29;20042;-77
2022/04/26 04:41:08;;;;;;;28.73;21.05;;;;;;;5.81;71.00;97647.75;10005482;29;20413;-78
2022/04/26 04:46:29;;;;;;;26.27;18.27;;;;;;;6.06;70.76;97645.00;9979234;29;20505;-78
2022/04/26 04:51:50;;;;;;;27.80;19.70;;;;;;;6.41;70.69;97654.13;9978557;29;20065;-76
2022/04/26 04:57:10;;;;;;;23.00;17.83;;;;;;;6.85;70.06;97670.13;9973778;29;20057;-77
2022/04/26 05:02:31;;;;;;;24.77;19.05;;;;;;;7.36;69.53;97666.56;9979752;29;20042;-77
2022/04/26 05:07:52;;;;;;;27.35;20.38;;;;;;;7.96;69.02;97669.03;9975769;29;20068;-77
2022/04/26 05:13:13;;;;;;;30.02;21.88;;;;;;;8.76;68.08;97676.44;9965972;29;20106;-77
2022/04/26 05:18:33;;;;;;;28.75;21.05;;;;;;;9.82;66.57;97681.13;9966118;29;20042;-77
2022/04/26 05:29:33;;;;;;;22.67;19.42;;;;;;;22.26;55.96;97690.25;10004448;29;20082;-77
2022/04/26 05:34:56;;;;;;;22.30;19.48;;;;;;;26.91;41.07;97684.94;9987673;29;20542;-80
2022/04/26 05:40:16;;;;;;;21.17;16.88;;;;;;;30.24;39.58;97690.00;9991845;29;20042;-75
2022/04/26 05:45:37;;;;;;;22.10;18.25;;;;;;;32.78;25.04;97696.69;9995428;29;20073;-77
2022/04/26 05:51:03;;;;;;;20.48;17.70;;;;;;;34.29;31.24;97693.75;10008452;29;20050;-77
2022/04/26 05:56:24;;;;;;;17.97;16.07;;;;;;;34.87;22.95;97693.53;9982316;29;20061;-77
2022/04/26 06:01:45;;;;;;;16.02;14.32;;;;;;;35.82;24.35;97692.69;10007642;29;20096;-78
2022/04/26 06:07:06;;;;;;;16.25;14.60;;;;;;;36.47;19.75;97699.13;10006581;29;20477;-76
2022/04/26 06:12:27;;;;;;;14.48;13.05;;;;;;;37.21;14.00;97691.94;9994736;29;20516;-85
2022/04/26 06:17:48;;;;;;;13.88;12.48;;;;;;;38.27;15.82;97705.00;10007309;29;20398;-85
2022/04/26 06:23:09;;;;;;;13.63;12.23;;;;;;;39.55;13.47;97697.59;9994457;29;20045;-84
2022/04/26 06:28:30;;;;;;;15.98;12.00;;;;;;;40.54;13.00;97701.31;10006876;29;20478;-86
2022/04/26 06:33:51;;;;;;;12.65;11.38;;;;;;;41.76;10.62;97698.91;9994288;29;20069;-86
2022/04/26 06:39:12;;;;;;;12.77;11.48;;;;;;;42.23;10.75;97691.69;9994118;29;20046;-86
2022/04/26 06:44:38;;;;;;;11.40;10.10;;;;;;;40.40;10.92;97681.56;9982454;29;20485;-86
2022/04/26 06:50:00;;;;;;;14.75;10.05;;;;;;;40.79;8.89;97685.34;10006904;29;20046;-86
2022/04/26 06:55:21;;;;;;;10.90;9.15;;;;;;;42.42;9.18;97678.81;9993728;29;20417;-87
2022/04/26 07:00:41;;;;;;;11.18;8.32;;;;;;;42.73;8.10;97683.50;9993880;29;20094;-86
2022/04/26 07:06:03;;;;;;;9.63;8.63;;;;;;;42.96;8.13;97686.44;9980746;29;20066;-85
2022/04/26 07:11:25;;;;;;;7.68;6.95;;;;;;;44.29;7.04;97683.50;9993661;29;20136;-86
2022/04/26 07:16:48;;;;;;;10.05;8.85;;;;;;;44.46;6.73;97687.38;10008758;29;20042;-86
2022/04/26 07:22:09;;;;;;;7.82;6.13;;;;;;;44.72;6.36;97681.19;10013233;29;20046;-85
2022/04/26 07:27:30;;;;;;;6.07;5.15;;;;;;;43.93;6.56;97687.41;10012755;29;20098;-84
2022/04/26 07:38:42;;;;;;;5.97;3.97;;;;;;;44.82;6.28;97695.19;9987037;29;20493;-85
2022/04/26 07:44:03;;;;;;;4.78;3.60;;;;;;;45.40;5.99;97689.50;9999689;29;20054;-85
2022/04/26 07:49:26;;;;;;;3.72;3.20;;;;;;;45.59;6.21;97686.59;10011913;29;20470;-85
2022/04/26 07:55:10;;;;;;;3.47;3.17;;;;;;;43.68;6.45;97694.91;9999576;29;20045;-83
2022/04/26 08:00:33;;;;;;;5.88;4.78;;;;;;;39.98;8.27;97687.41;9999483;29;20053;-83
2022/04/26 08:05:59;;;;;;;7.43;4.90;;;;;;;39.77;8.74;97693.59;10011052;29;20065;-83
2022/04/26 08:11:21;;;;;;;4.75;3.45;;;;;;;40.85;8.36;97690.84;9996436;29;20082;-84
2022/04/26 08:16:42;;;;;;;4.43;2.95;;;;;;;43.60;7.81;97694.75;9998275;29;20105;-82
2022/04/26 08:22:04;;;;;;;3.72;2.75;;;;;;;45.57;6.83;97701.47;10010725;29;20046;-83
2022/04/26 08:27:25;;;;;;;3.22;2.90;;;;;;;47.10;5.76;97706.59;9997426;29;20050;-85
2022/04/26 08:32:48;;;;;;;5.30;2.70;;;;;;;48.57;5.44;97706.81;10010035;29;20066;-84
2022/04/26 08:38:18;;;;;;;3.75;2.22;;;;;;;49.24;3.78;97721.63;10010531;29;20458;-83
2022/04/26 08:43:43;;;;;;;2.80;2.20;;;;;;;47.29;3.99;97716.09;9998423;29;20050;-83
2022/04/26 08:54:49;;;;;;;4.28;3.20;;;;;;;47.70;4.42;97712.75;9999665;29;20401;-83
2022/04/26 09:00:15;;;;;;;5.55;3.75;;;;;;;48.37;4.46;97710.00;10010293;29;20468;-85
2022/04/26 09:05:36;;;;;;;4.85;2.90;;;;;;;49.14;3.87;97704.75;9981517;29;20082;-84
2022/04/26 09:11:00;;;;;;;4.65;3.97;;;;;;;41.67;6.64;97695.72;9996417;29;20045;-83
2022/04/26 09:16:26;;;;;;;4.45;3.83;;;;;;;43.54;6.37;97704.00;9982829;29;20053;-80
2022/04/26 09:21:56;;;;;;;4.75;4.28;;;;;;;45.06;5.79;97701.56;10002586;29;20072;-80
2022/04/26 09:27:17;;;;;;;5.97;5.10;;;;;;;43.32;6.52;97703.88;10008699;29;20057;-80
2022/04/26 09:32:47;;;;;;;6.55;3.85;;;;;;;43.72;6.86;97705.69;9983434;29;20050;-80
2022/04/26 09:38:23;;;;;;;6.15;3.47;;;;;;;46.34;5.12;97694.19;10008871;29;20053;-80
2022/04/26 09:43:44;;;;;;;6.75;3.72;;;;;;;46.74;5.06;97693.94;9992549;29;20109;-80
2022/04/26 09:49:06;;;;;;;3.35;2.92;;;;;;;47.91;4.91;97690.34;10020753;29;20500;-81
2022/04/26 09:54:29;;;;;;;3.90;2.50;;;;;;;48.30;4.25;97697.28;9982263;29;20073;-79
2022/04/26 09:59:51;;;;;;;4.30;2.25;;;;;;;48.70;3.80;97698.97;9995216;29;20396;-86
2022/04/26 10:05:14;;;;;;;2.60;1.60;;;;;;;43.99;4.51;97701.69;9994701;29;20042;-87
2022/04/26 10:10:35;;;;;;;4.18;2.40;;;;;;;37.40;8.00;97685.38;9994853;29;20046;-87
2022/04/26 10:15:56;;;;;;;3.28;2.55;;;;;;;34.86;9.78;97684.13;9994677;29;20050;-87
2022/04/26 10:21:23;;;;;;;2.78;2.53;;;;;;;38.01;9.01;97694.47;9994624;29;20073;-88
2022/04/26 10:26:45;;;;;;;1.92;1.80;;;;;;;42.51;7.52;97685.59;10007247;29;20049;-88
2022/04/26 10:32:11;;;;;;;2.83;1.98;;;;;;;42.49;6.12;97680.56;9993757;29;20061;-89
2022/04/26 10:37:35;;;;;;;2.25;1.77;;;;;;;43.21;5.73;97676.72;10007079;29;20049;-87
2022/04/26 10:43:05;;;;;;;1.90;1.17;;;;;;;44.33;5.18;97666.28;9994180;29;20091;-84
2022/04/26 10:48:27;;;;;;;3.53;1.55;;;;;;;43.53;5.42;97668.03;9993962;29;20461;-88
2022/04/26 10:53:48;;;;;;;2.55;1.48;;;;;;;43.72;5.22;97673.34;10012128;29;20155;-88
2022/04/26 10:59:13;;;;;;;2.53;1.60;;;;;;;38.72;6.89;97665.09;10014014;29;20110;-88
2022/04/26 11:04:34;;;;;;;3.47;2.13;;;;;;;35.77;7.80;97651.47;9999100;29;20058;-88
2022/04/26 11:09:56;;;;;;;2.90;2.20;;;;;;;32.78;11.26;97650.47;9988386;29;20057;-88
2022/04/26 11:15:21;;;;;;;3.42;2.17;;;;;;;29.34;13.22;97645.53;10000860;29;20057;-89
2022/04/26 11:20:41;;;;;;;5.45;1.83;;;;;;;27.18;15.26;97650.63;9988295;29;20043;-89
2022/04/26 11:31:46;;;;;;;3.22;1.58;;;;;;;25.80;16.38;97648.75;10002082;29;20062;-87
2022/04/26 11:37:07;;;;;;;1.73;1.40;;;;;;;24.49;17.32;97657.56;9999858;29;20041;-87
2022/04/26 11:42:28;;;;;;;3.30;2.00;;;;;;;24.15;18.85;97655.72;9999638;29;20054;-86
2022/04/26 11:47:49;;;;;;;4.00;2.10;;;;;;;25.09;18.53;97656.75;9999257;29;20053;-87
2022/04/26 11:53:20;;;;;;;3.80;2.25;;;;;;;25.87;17.70;97647.34;10000750;29;20073;-86
2022/04/26 11:58:41;;;;;;;2.95;2.30;;;;;;;25.21;18.42;97639.72;9999066;29;20081;-88
2022/04/26 12:04:02;;;;;;;3.38;1.88;;;;;;;25.08;18.12;97632.47;9997510;29;20045;-88
2022/04/26 12:09:24;;;;;;;3.42;1.88;;;;;;;25.65;18.23;97645.03;10011118;29;20439;-88
2022/04/26 12:14:46;;;;;;;1.70;1.38;;;;;;;25.15;17.67;97642.53;10010922;29;20042;-88
2022/04/26 12:20:09;;;;;;;4.85;1.30;;;;;;;23.82;18.49;97633.88;9998616;29;20046;-87
2022/04/26 12:25:33;;;;;;;4.70;1.38;;;;;;;23.82;19.16;97620.34;9985697;29;20405;-88
2022/04/26 12:30:54;;;;;;;1.77;1.02;;;;;;;22.81;19.74;97633.69;9977477;29;20078;-88
2022/04/26 12:36:15;;;;;;;5.07;1.33;;;;;;;23.30;19.99;97626.72;9972856;29;20046;-86
2022/04/26 12:41:49;;;;;;;1.73;1.38;;;;;;;23.24;20.52;97625.88;9972812;29;20070;-88
2022/04/26 12:52:52;;;;;;;2.57;1.30;;;;;;;23.63;19.67;97612.97;9972119;29;20046;-85
2022/04/26 12:58:15;;;;;;;2.72;1.50;;;;;;;22.94;20.09;97615.44;9959481;29;20283;-86
2022/04/26 13:03:36;;;;;;;;;;;;;;;22.38;21.12;97618.69;9959919;29;20057;-84
2022/04/26 13:08:57;;;;;;;3.55;1.60;;;;;;;21.76;20.78;97624.50;9971677;29;20334;-85
2022/04/26 13:14:25;;;;;;;3.83;1.00;;;;;;;21.45;21.35;97625.25;9960435;29;20054;-85
2022/04/26 13:20:05;;;;;;;2.38;1.38;;;;;;;20.35;22.52;97619.59;9971337;29;20046;-86
2022/04/26 13:25:26;;;;;;;1.85;1.30;;;;;;;20.20;23.09;97607.88;9946365;29;20514;-85
2022/04/26 13:30:46;;;;;;;2.30;1.40;;;;;;;20.34;23.01;97603.97;9970981;29;20059;-85
2022/04/26 13:36:08;;;;;;;2.60;2.33;;;;;;;20.88;22.69;97604.00;9958413;29;20058;-83
2022/04/26 13:41:31;;;;;;;2.83;1.90;;;;;;;21.04;23.67;97590.22;9970507;29;20069;-81
2022/04/26 13:46:53;;;;;;;3.15;2.20;;;;;;;21.20;23.00;97599.09;9970503;29;20414;-82
2022/04/26 13:52:16;;;;;;;3.72;1.98;;;;;;;21.20;22.41;97587.00;9970658;29;20046;-84
2022/04/26 13:57:38;;;;;;;3.35;2.17;;;;;;;21.19;23.14;97582.75;9957704;29;20042;-82
2022/04/26 14:03:01;;;;;;;4.53;2.25;;;;;;;21.26;22.70;97575.81;9958467;29;20046;-83
2022/04/26 14:08:23;;;;;;;2.50;1.85;;;;;;;21.17;22.71;97594.03;9957658;29;20050;-82
2022/04/26 14:25:23;;;;;;;3.30;2.25;;;;;;;20.27;22.94;97598.16;9960950;29;20481;-82
2022/04/26 14:30:44;;;;;;;3.60;1.90;;;;;;;20.41;23.23;97588.59;9956748;29;20063;-83
2022/04/26 14:36:05;;;;;;;3.45;2.00;;;;;;;20.36;23.09;97590.56;9956803;29;20107;-84
2022/04/26 14:41:26;;;;;;;3.53;2.25;;;;;;;20.06;24.44;97595.41;9956579;29;20054;-78
2022/04/26 14:46:47;;;;;;;2.83;1.90;;;;;;;19.36;24.17;97598.31;9968942;29;20043;-84
2022/04/26 14:52:08;;;;;;;2.53;1.77;;;;;;;19.27;24.64;97600.16;9943766;29;20046;-84
2022/04/26 14:57:48;;;;;;;4.10;2.35;;;;;;;19.50;24.80;97598.75;9951167;29;20046;-78
2022/04/26 15:03:08;;;;;;;3.33;2.40;;;;;;;19.51;24.88;97594.53;9982049;29;20047;-83
2022/04/26 15:19:50;;;;;;;5.13;2.72;;;;;;;19.59;25.39;97603.31;9960287;29;20061;-83
2022/04/26 15:25:10;;;;;;;3.42;2.65;;;;;;;19.60;26.01;97607.59;9955988;29;20042;-82
2022/04/26 15:30:31;;;;;;;3.80;2.40;;;;;;;19.53;25.77;97603.09;9955355;29;20089;-80
2022/04/26 15:35:52;;;;;;;3.38;2.90;;;;;;;19.15;26.81;97611.84;9943091;29;20053;-78
2022/04/26 15:41:13;;;;;;;4.68;2.13;;;;;;;18.76;26.22;97603.47;9974546;29;20042;-82
2022/04/26 15:46:34;;;;;;;4.05;2.30;;;;;;;18.24;27.10;97601.00;9949274;29;20067;-77
2022/04/26 15:51:56;;;;;;;2.92;1.90;;;;;;;17.98;27.29;97602.88;9961702;29;20042;-80
2022/04/26 15:57:18;;;;;;;2.27;1.63;;;;;;;17.92;27.39;97603.38;9961886;29;20115;-85
2022/04/26 16:02:40;;;;;;;3.25;1.75;;;;;;;17.94;27.72;97611.91;9961573;29;20073;-84
2022/04/26 16:08:03;;;;;;;2.22;1.52;;;;;;;17.92;27.36;97594.19;9974239;29;20051;-85
2022/04/26 16:25:27;;;;;;;3.10;1.90;;;;;;;17.29;28.47;97611.56;9965221;29;20091;-82
2022/04/26 16:30:47;;;;;;;3.35;1.75;;;;;;;17.33;28.50;97601.13;9960702;29;20093;-85
2022/04/26 16:36:11;;;;;;;2.10;1.35;;;;;;;17.23;28.33;97602.84;9960165;29;20043;-84
2022/04/26 16:41:32;;;;;;;4.47;1.50;;;;;;;16.86;28.57;97604.94;9960583;29;20070;-83
2022/04/26 16:46:54;;;;;;;2.42;1.60;;;;;;;16.76;28.81;97617.88;9959746;29;20054;-84
2022/04/26 16:52:14;;;;;;;2.33;1.30;;;;;;;16.72;28.79;97621.25;9958948;29;20049;-85
2022/04/26 16:57:35;;;;;;;2.22;1.50;;;;;;;16.73;28.95;97636.09;9959448;29;20062;-89
2022/04/26 17:02:56;;;;;;;2.47;1.67;;;;;;;16.76;29.22;97631.97;9946665;29;20053;-89
2022/04/26 17:08:18;;;;;;;2.92;1.90;;;;;;;16.77;29.33;97641.88;9959371;29;20083;-88
2022/04/26 17:13:39;;;;;;;2.13;1.40;;;;;;;16.79;29.71;97648.34;9971619;29;20050;-83
2022/04/26 17:18:59;;;;;;;2.97;1.60;;;;;;;16.75;29.65;97650.97;9958922;29;20050;-85
2022/04/26 17:25:13;;;;;;;2.80;2.15;;;;;;;16.65;29.75;97661.06;9943656;29;20061;-84
2022/04/26 17:30:03;;;;;;;2.85;2.03;;;;;;;16.38;30.10;97662.75;9963187;29;20069;-83
2022/04/26 17:35:31;;;;;;;2.50;1.85;;;;;;;16.18;30.37;97662.59;9959109;29;20057;-82
2022/04/26 17:40:52;;;;;;;2.60;2.20;;;;;;;15.99;30.33;97660.31;9970696;29;20065;-83
2022/04/26 17:46:15;;;;;;;4.43;2.90;;;;;;;15.73;31.49;97648.63;9958575;29;20417;-79
2022/04/26 17:51:36;;;;;;;4.97;3.05;;;;;;;15.55;31.80;97654.09;9958370;29;20058;-78
2022/04/26 17:56:58;;;;;;;3.40;3.00;;;;;;;15.51;32.70;97667.97;9958654;29;20132;-79
2022/04/26 18:02:19;;;;;;;5.30;3.05;;;;;;;15.54;33.03;97665.97;9957876;29;20042;-78
2022/04/26 18:07:40;;;;;;;6.05;2.75;;;;;;;15.45;32.66;97681.75;9958610;29;20054;-78
2022/04/26 18:13:01;;;;;;;3.28;2.83;;;;;;;15.36;33.11;97693.97;9958437;29;20095;-79
2022/04/26 18:18:23;;;;;;;6.68;3.45;;;;;;;15.32;33.45;97702.19;9957701;29;20046;-79
2022/04/26 18:23:44;;;;;;;6.05;3.08;;;;;;;15.22;33.65;97708.06;9958882;29;20049;-79
2022/04/26 18:29:05;;;;;;;8.43;2.97;;;;;;;15.08;34.03;97724.97;9946615;29;20062;-79
2022/04/26 18:34:26;;;;;;;4.25;3.05;;;;;;;14.99;34.52;97734.34;9973183;29;20054;-79
2022/04/26 18:39:47;;;;;;;5.97;3.10;;;;;;;14.86;35.00;97749.88;9946411;29;20455;-79
2022/04/26 18:45:07;;;;;;;4.25;3.03;;;;;;;14.80;35.44;97752.38;9942847;29;20418;-79
2022/04/26 18:50:29;;;;;;;3.95;2.90;;;;;;;14.75;35.81;97761.22;9947516;29;20046;-79
2022/04/26 18:55:53;;;;;;;6.55;3.58;;;;;;;14.70;36.83;97762.38;9959669;29;20058;-79
2022/04/26 19:01:14;;;;;;;6.22;4.03;;;;;;;14.59;36.65;97781.50;9972418;29;20491;-81
2022/04/26 19:06:40;;;;;;;8.40;5.88;;;;;;;14.53;37.92;97789.59;9957451;29;20050;-82
2022/04/26 19:12:18;;;;;;;6.38;4.03;;;;;;;14.43;37.34;97799.53;9958734;29;20050;-81
2022/04/26 19:17:42;;;;;;;6.32;4.10;;;;;;;14.46;37.35;97803.94;9967169;29;20107;-79
2022/04/26 19:23:03;;;;;;;7.68;4.68;;;;;;;14.41;38.38;97802.97;9970271;29;20079;-82
2022/04/26 19:28:24;;;;;;;5.68;4.07;;;;;;;14.30;38.14;97810.13;9965483;29;20049;-81
2022/04/26 19:33:45;;;;;;;5.88;4.20;;;;;;;14.23;38.14;97810.41;9979198;29;20054;-81
2022/04/26 19:39:06;;;;;;;6.10;4.05;;;;;;;14.09;39.49;97809.63;9951514;29;20046;-79
2022/04/26 19:44:27;;;;;;;5.78;4.05;;;;;;;13.98;40.15;97806.28;9975302;29;20042;-79
2022/04/26 19:55:28;;;;;;;6.95;4.90;;;;;;;13.90;39.86;97807.94;9967681;29;20054;-78
2022/04/26 20:00:51;;;;;;;7.05;4.97;;;;;;;13.90;40.06;97810.72;9962286;29;20054;-79
2022/04/26 20:06:12;;;;;;;6.32;4.95;;;;;;;13.79;40.47;97812.22;9970434;29;20054;-78
2022/04/26 20:11:33;;;;;;;7.15;4.40;;;;;;;13.77;40.29;97820.53;10002768;29;20053;-77
2022/04/26 20:16:55;;;;;;;6.05;4.60;;;;;;;13.75;40.56;97823.22;9978823;29;20507;-78
2022/04/26 20:22:17;;;;;;;6.78;4.72;;;;;;;13.76;40.90;97824.69;10007951;29;20050;-78
2022/04/26 20:33:18;;;;;;;7.97;4.80;;;;;;;13.57;41.14;97839.00;9989316;29;20053;-78
2022/04/26 20:38:39;;;;;;;5.88;4.35;;;;;;;13.44;41.62;97843.94;9968341;29;20046;-78
2022/04/26 20:44:02;;;;;;;6.70;4.47;;;;;;;13.36;41.59;97849.06;9986406;29;20107;-78
2022/04/26 20:49:23;;;;;;;8.18;5.05;;;;;;;13.27;41.54;97849.94;9990771;29;20158;-79
2022/04/26 20:54:44;;;;;;;7.40;4.57;;;;;;;13.13;42.51;97861.03;9988276;29;20050;-78
2022/04/26 21:00:05;;;;;;;7.35;5.13;;;;;;;13.01;42.00;97865.16;9962695;29;20042;-77
2022/04/26 21:05:27;;;;;;;8.20;4.78;;;;;;;12.99;42.63;97874.16;9980672;29;20049;-78
2022/04/26 21:10:49;;;;;;;7.85;4.65;;;;;;;12.89;42.18;97865.16;9990832;29;20398;-77
2022/04/26 21:16:10;;;;;;;7.65;5.55;;;;;;;12.87;42.50;97871.38;9950894;29;20051;-78
2022/04/26 21:21:31;;;;;;;8.63;5.10;;;;;;;12.73;43.41;97876.09;9948757;29;20042;-78
2022/04/26 21:26:52;;;;;;;8.23;5.20;;;;;;;12.68;43.15;97880.00;9960184;29;20050;-78
2022/04/26 21:32:13;;;;;;;8.02;4.90;;;;;;;12.57;43.36;97887.06;9947454;29;20422;-78
2022/04/26 21:37:34;;;;;;;7.13;4.88;;;;;;;12.49;43.62;97894.22;9972547;29;20056;-78
2022/04/26 21:42:55;;;;;;;8.13;5.10;;;;;;;12.45;44.58;97891.16;9959332;29;20459;-78
2022/04/26 21:48:16;;;;;;;8.43;5.30;;;;;;;12.38;44.65;97892.13;9947458;29;20050;-78
2022/04/26 21:53:39;;;;;;;7.68;5.30;;;;;;;12.43;45.00;97900.16;9960090;29;20054;-77
2022/04/26 21:59:00;;;;;;;8.95;5.40;;;;;;;12.37;45.16;97901.84;9959457;29;20050;-78
2022/04/26 22:04:21;;;;;;;7.47;5.10;;;;;;;12.20;45.09;97903.63;9959014;29;20406;-78
2022/04/26 22:09:42;;;;;;;6.53;4.95;;;;;;;12.10;45.88;97913.44;9955813;29;20046;-78
2022/04/26 22:15:03;;;;;;;7.63;5.10;;;;;;;12.08;45.98;97916.13;9971345;29;20543;-78
2022/04/26 22:20:25;;;;;;;7.32;4.72;;;;;;;12.13;46.01;97920.63;9981985;29;20046;-77
2022/04/26 22:25:46;;;;;;;7.85;5.40;;;;;;;12.14;45.61;97914.41;9962765;29;20520;-77
2022/04/26 22:31:07;;;;;;;6.07;4.60;;;;;;;12.11;45.94;97918.44;9991874;29;20111;-77
2022/04/26 22:36:27;;;;;;;7.60;4.70;;;;;;;12.06;46.09;97924.34;10000745;29;20046;-78
2022/04/26 22:41:49;;;;;;;8.20;5.15;;;;;;;12.07;46.06;97932.19;9979314;29;20042;-78
2022/04/26 22:47:09;;;;;;;9.18;4.47;;;;;;;12.10;45.78;97928.16;9976062;29;20047;-78
2022/04/26 22:52:30;;;;;;;6.68;4.40;;;;;;;12.07;46.15;97929.38;9995897;29;20048;-78
2022/04/26 22:57:51;;;;;;;7.10;4.47;;;;;;;11.97;46.37;97931.53;9982372;29;20058;-78
2022/04/26 23:03:12;;;;;;;11.07;5.35;;;;;;;11.91;46.59;97931.13;9997185;29;20054;-78
2022/04/26 23:08:36;;;;;;;7.07;4.57;;;;;;;11.89;46.46;97928.19;9968492;29;20057;-78
2022/04/26 23:13:57;;;;;;;7.17;4.67;;;;;;;11.86;46.92;97929.38;9981166;29;20082;-78
2022/04/26 23:19:18;;;;;;;7.07;4.40;;;;;;;11.83;46.80;97930.59;9989370;29;20049;-78
2022/04/26 23:24:40;;;;;;;6.90;4.63;;;;;;;11.79;47.17;97944.28;9978346;29;20402;-78
2022/04/26 23:30:01;;;;;;;6.82;4.68;;;;;;;11.72;46.86;97946.66;9993048;29;20061;-78
2022/04/26 23:35:34;;;;;;;6.35;4.40;;;;;;;11.69;47.15;97947.88;9973284;29;20045;-77
2022/04/26 23:40:55;;;;;;;7.22;4.30;;;;;;;11.71;47.22;97953.59;9988375;29;20494;-77
2022/04/26 23:46:16;;;;;;;7.30;4.90;;;;;;;11.72;47.09;97945.94;10010363;29;20099;-78
2022/04/26 23:57:17;;;;;;;13.43;5.40;;;;;;;11.56;47.64;97948.38;10005725;29;20116;-77
